sensor_id;sensor_type;location;lat;lon;timestamp;P1;durP1;ratioP1;P2;durP2;ratioP2
36547;SDS011;22551;52.206;4.856;2023-05-17T00:03:36;10.38;;;3.50;;
36547;SDS011;22551;52.206;4.856;2023-05-17T00:08:38;6.57;;;2.25;;
36547;SDS011;22551;52.206;4.856;2023-05-17T00:13:44;8.30;;;2.50;;
36547;SDS011;22551;52.206;4.856;2023-05-17T00:18:46;12.45;;;2.72;;
36547;SDS011;22551;52.206;4.856;2023-05-17T00:23:48;13.23;;;2.60;;
36547;SDS011;22551;52.206;4.856;2023-05-17T00:28:52;13.45;;;3.05;;
36547;SDS011;22551;52.206;4.856;2023-05-17T00:33:54;6.25;;;2.53;;
36547;SDS011;22551;52.206;4.856;2023-05-17T00:38:56;13.98;;;3.17;;
36547;SDS011;22551;52.206;4.856;2023-05-17T00:44:00;9.88;;;2.47;;
36547;SDS011;22551;52.206;4.856;2023-05-17T00:49:02;10.02;;;2.70;;
36547;SDS011;22551;52.206;4.856;2023-05-17T00:54:04;15.35;;;3.65;;
36547;SDS011;22551;52.206;4.856;2023-05-17T00:59:08;14.82;;;3.85;;
36547;SDS011;22551;52.206;4.856;2023-05-17T01:04:13;14.57;;;2.70;;
36547;SDS011;22551;52.206;4.856;2023-05-17T01:09:15;11.13;;;3.63;;
36547;SDS011;22551;52.206;4.856;2023-05-17T01:14:25;10.43;;;2.55;;
36547;SDS011;22551;52.206;4.856;2023-05-17T01:19:48;13.35;;;3.10;;
36547;SDS011;22551;52.206;4.856;2023-05-17T01:25:00;10.57;;;2.55;;
36547;SDS011;22551;52.206;4.856;2023-05-17T01:30:25;9.93;;;3.60;;
36547;SDS011;22551;52.206;4.856;2023-05-17T01:35:30;13.60;;;3.05;;
36547;SDS011;22551;52.206;4.856;2023-05-17T01:40:32;12.25;;;3.17;;
36547;SDS011;22551;52.206;4.856;2023-05-17T01:45:40;17.92;;;3.17;;
36547;SDS011;22551;52.206;4.856;2023-05-17T01:50:48;6.93;;;2.33;;
36547;SDS011;22551;52.206;4.856;2023-05-17T01:55:53;10.30;;;3.00;;
36547;SDS011;22551;52.206;4.856;2023-05-17T02:06:01;11.63;;;2.50;;
36547;SDS011;22551;52.206;4.856;2023-05-17T02:11:03;14.85;;;2.63;;
36547;SDS011;22551;52.206;4.856;2023-05-17T02:16:07;11.48;;;2.60;;
36547;SDS011;22551;52.206;4.856;2023-05-17T02:21:10;13.60;;;2.85;;
36547;SDS011;22551;52.206;4.856;2023-05-17T02:26:12;14.50;;;2.30;;
36547;SDS011;22551;52.206;4.856;2023-05-17T02:31:16;11.57;;;2.13;;
36547;SDS011;22551;52.206;4.856;2023-05-17T02:36:18;16.40;;;3.65;;
36547;SDS011;22551;52.206;4.856;2023-05-17T02:41:20;15.73;;;2.95;;
36547;SDS011;22551;52.206;4.856;2023-05-17T02:46:23;12.13;;;3.22;;
36547;SDS011;22551;52.206;4.856;2023-05-17T02:51:25;10.40;;;2.80;;
36547;SDS011;22551;52.206;4.856;2023-05-17T02:56:28;13.90;;;3.00;;
36547;SDS011;22551;52.206;4.856;2023-05-17T03:01:31;12.68;;;2.75;;
36547;SDS011;22551;52.206;4.856;2023-05-17T03:06:33;13.18;;;2.28;;
36547;SDS011;22551;52.206;4.856;2023-05-17T03:11:35;15.98;;;2.63;;
36547;SDS011;22551;52.206;4.856;2023-05-17T03:16:39;13.68;;;3.08;;
36547;SDS011;22551;52.206;4.856;2023-05-17T03:21:41;11.73;;;2.17;;
36547;SDS011;22551;52.206;4.856;2023-05-17T03:26:43;15.77;;;2.40;;
36547;SDS011;22551;52.206;4.856;2023-05-17T03:31:47;9.43;;;2.63;;
36547;SDS011;22551;52.206;4.856;2023-05-17T03:36:49;13.52;;;2.05;;
36547;SDS011;22551;52.206;4.856;2023-05-17T03:41:51;12.55;;;2.05;;
36547;SDS011;22551;52.206;4.856;2023-05-17T03:46:55;14.85;;;2.55;;
36547;SDS011;22551;52.206;4.856;2023-05-17T03:51:57;17.33;;;2.03;;
36547;SDS011;22551;52.206;4.856;2023-05-17T03:56:59;13.55;;;2.03;;
36547;SDS011;22551;52.206;4.856;2023-05-17T04:02:04;17.33;;;2.85;;
36547;SDS011;22551;52.206;4.856;2023-05-17T04:07:07;9.60;;;1.97;;
36547;SDS011;22551;52.206;4.856;2023-05-17T04:12:10;8.07;;;2.20;;
36547;SDS011;22551;52.206;4.856;2023-05-17T04:17:13;11.45;;;1.65;;
36547;SDS011;22551;52.206;4.856;2023-05-17T04:22:15;9.60;;;1.30;;
36547;SDS011;22551;52.206;4.856;2023-05-17T04:27:18;4.60;;;1.30;;
36547;SDS011;22551;52.206;4.856;2023-05-17T04:32:22;8.20;;;2.10;;
36547;SDS011;22551;52.206;4.856;2023-05-17T04:37:24;10.65;;;2.13;;
36547;SDS011;22551;52.206;4.856;2023-05-17T04:42:27;17.52;;;1.80;;
36547;SDS011;22551;52.206;4.856;2023-05-17T04:47:30;8.63;;;1.75;;
36547;SDS011;22551;52.206;4.856;2023-05-17T04:52:33;15.98;;;2.20;;
36547;SDS011;22551;52.206;4.856;2023-05-17T04:57:35;15.32;;;1.88;;
36547;SDS011;22551;52.206;4.856;2023-05-17T05:02:39;7.35;;;1.25;;
36547;SDS011;22551;52.206;4.856;2023-05-17T05:07:41;11.18;;;2.00;;
36547;SDS011;22551;52.206;4.856;2023-05-17T05:12:43;9.25;;;1.88;;
36547;SDS011;22551;52.206;4.856;2023-05-17T05:17:47;9.45;;;1.60;;
36547;SDS011;22551;52.206;4.856;2023-05-17T05:22:50;23.15;;;2.60;;
36547;SDS011;22551;52.206;4.856;2023-05-17T05:27:52;8.93;;;1.73;;
36547;SDS011;22551;52.206;4.856;2023-05-17T05:32:56;12.68;;;2.45;;
36547;SDS011;22551;52.206;4.856;2023-05-17T05:37:58;12.05;;;1.70;;
36547;SDS011;22551;52.206;4.856;2023-05-17T05:43:00;18.70;;;2.50;;
36547;SDS011;22551;52.206;4.856;2023-05-17T05:48:04;16.13;;;1.70;;
36547;SDS011;22551;52.206;4.856;2023-05-17T05:58:09;11.13;;;1.92;;
36547;SDS011;22551;52.206;4.856;2023-05-17T06:03:13;18.20;;;1.88;;
36547;SDS011;22551;52.206;4.856;2023-05-17T06:08:16;17.70;;;2.42;;
36547;SDS011;22551;52.206;4.856;2023-05-17T06:13:18;12.52;;;1.95;;
36547;SDS011;22551;52.206;4.856;2023-05-17T06:18:22;8.05;;;1.05;;
36547;SDS011;22551;52.206;4.856;2023-05-17T06:23:24;7.43;;;1.83;;
36547;SDS011;22551;52.206;4.856;2023-05-17T06:28:26;4.50;;;1.02;;
36547;SDS011;22551;52.206;4.856;2023-05-17T06:33:30;9.40;;;1.15;;
36547;SDS011;22551;52.206;4.856;2023-05-17T06:38:32;9.77;;;1.55;;
36547;SDS011;22551;52.206;4.856;2023-05-17T06:43:34;12.02;;;1.38;;
36547;SDS011;22551;52.206;4.856;2023-05-17T06:48:38;9.93;;;1.98;;
36547;SDS011;22551;52.206;4.856;2023-05-17T06:53:40;9.60;;;1.80;;
36547;SDS011;22551;52.206;4.856;2023-05-17T06:58:42;7.45;;;1.35;;
36547;SDS011;22551;52.206;4.856;2023-05-17T07:03:46;7.82;;;1.35;;
36547;SDS011;22551;52.206;4.856;2023-05-17T07:08:48;13.95;;;2.20;;
36547;SDS011;22551;52.206;4.856;2023-05-17T07:13:51;4.72;;;1.02;;
36547;SDS011;22551;52.206;4.856;2023-05-17T07:18:54;5.95;;;1.10;;
36547;SDS011;22551;52.206;4.856;2023-05-17T07:23:57;4.10;;;0.73;;
36547;SDS011;22551;52.206;4.856;2023-05-17T07:28:59;12.55;;;1.13;;
36547;SDS011;22551;52.206;4.856;2023-05-17T07:34:03;19.65;;;1.60;;
36547;SDS011;22551;52.206;4.856;2023-05-17T07:39:05;10.20;;;0.88;;
36547;SDS011;22551;52.206;4.856;2023-05-17T07:44:09;7.13;;;0.95;;
36547;SDS011;22551;52.206;4.856;2023-05-17T07:49:12;5.60;;;0.88;;
36547;SDS011;22551;52.206;4.856;2023-05-17T07:54:20;4.88;;;0.95;;
36547;SDS011;22551;52.206;4.856;2023-05-17T07:59:25;5.38;;;1.23;;
36547;SDS011;22551;52.206;4.856;2023-05-17T08:04:29;6.15;;;0.85;;
36547;SDS011;22551;52.206;4.856;2023-05-17T08:09:31;7.97;;;0.70;;
36547;SDS011;22551;52.206;4.856;2023-05-17T08:14:33;4.70;;;0.70;;
36547;SDS011;22551;52.206;4.856;2023-05-17T08:19:39;9.15;;;1.55;;
36547;SDS011;22551;52.206;4.856;2023-05-17T08:24:41;6.25;;;0.60;;
36547;SDS011;22551;52.206;4.856;2023-05-17T08:29:44;5.95;;;1.13;;
36547;SDS011;22551;52.206;4.856;2023-05-17T08:34:48;6.05;;;0.88;;
36547;SDS011;22551;52.206;4.856;2023-05-17T08:39:50;3.05;;;0.88;;
36547;SDS011;22551;52.206;4.856;2023-05-17T08:44:52;3.28;;;1.02;;
36547;SDS011;22551;52.206;4.856;2023-05-17T08:49:57;5.57;;;0.93;;
36547;SDS011;22551;52.206;4.856;2023-05-17T08:55:00;6.28;;;0.43;;
36547;SDS011;22551;52.206;4.856;2023-05-17T09:00:07;9.83;;;1.30;;
36547;SDS011;22551;52.206;4.856;2023-05-17T09:05:14;5.97;;;0.73;;
36547;SDS011;22551;52.206;4.856;2023-05-17T09:10:17;7.63;;;0.85;;
36547;SDS011;22551;52.206;4.856;2023-05-17T09:15:21;6.50;;;1.05;;
36547;SDS011;22551;52.206;4.856;2023-05-17T09:20:28;6.28;;;1.27;;
36547;SDS011;22551;52.206;4.856;2023-05-17T09:25:34;10.05;;;1.35;;
36547;SDS011;22551;52.206;4.856;2023-05-17T09:30:37;5.80;;;1.05;;
36547;SDS011;22551;52.206;4.856;2023-05-17T09:35:42;7.03;;;1.42;;
36547;SDS011;22551;52.206;4.856;2023-05-17T09:40:56;5.93;;;1.20;;
36547;SDS011;22551;52.206;4.856;2023-05-17T09:45:59;8.73;;;1.55;;
36547;SDS011;22551;52.206;4.856;2023-05-17T09:51:05;7.15;;;1.00;;
36547;SDS011;22551;52.206;4.856;2023-05-17T09:56:08;10.32;;;1.45;;
36547;SDS011;22551;52.206;4.856;2023-05-17T10:01:11;7.80;;;0.98;;
36547;SDS011;22551;52.206;4.856;2023-05-17T10:06:15;5.00;;;0.80;;
36547;SDS011;22551;52.206;4.856;2023-05-17T10:11:21;7.75;;;1.30;;
36547;SDS011;22551;52.206;4.856;2023-05-17T10:16:33;11.40;;;1.33;;
36547;SDS011;22551;52.206;4.856;2023-05-17T10:21:37;7.30;;;0.75;;
36547;SDS011;22551;52.206;4.856;2023-05-17T10:26:40;4.72;;;0.80;;
36547;SDS011;22551;52.206;4.856;2023-05-17T10:31:43;6.03;;;1.30;;
36547;SDS011;22551;52.206;4.856;2023-05-17T10:36:49;5.35;;;0.90;;
36547;SDS011;22551;52.206;4.856;2023-05-17T10:41:51;5.50;;;1.15;;
36547;SDS011;22551;52.206;4.856;2023-05-17T10:46:57;7.22;;;1.23;;
36547;SDS011;22551;52.206;4.856;2023-05-17T10:52:11;4.47;;;0.98;;
36547;SDS011;22551;52.206;4.856;2023-05-17T10:57:19;8.27;;;1.35;;
36547;SDS011;22551;52.206;4.856;2023-05-17T11:02:23;7.35;;;1.10;;
36547;SDS011;22551;52.206;4.856;2023-05-17T11:07:29;5.03;;;0.87;;
36547;SDS011;22551;52.206;4.856;2023-05-17T11:12:34;6.35;;;0.95;;
36547;SDS011;22551;52.206;4.856;2023-05-17T11:17:47;4.80;;;1.10;;
36547;SDS011;22551;52.206;4.856;2023-05-17T11:22:55;4.10;;;0.75;;
36547;SDS011;22551;52.206;4.856;2023-05-17T11:27:59;8.57;;;1.00;;
36547;SDS011;22551;52.206;4.856;2023-05-17T11:33:07;8.57;;;1.48;;
36547;SDS011;22551;52.206;4.856;2023-05-17T11:38:14;4.60;;;0.98;;
36547;SDS011;22551;52.206;4.856;2023-05-17T11:43:18;3.55;;;0.60;;
36547;SDS011;22551;52.206;4.856;2023-05-17T11:48:22;10.55;;;1.42;;
36547;SDS011;22551;52.206;4.856;2023-05-17T11:53:27;5.65;;;1.35;;
36547;SDS011;22551;52.206;4.856;2023-05-17T11:58:32;4.97;;;1.02;;
36547;SDS011;22551;52.206;4.856;2023-05-17T12:03:35;3.63;;;1.10;;
36547;SDS011;22551;52.206;4.856;2023-05-17T12:08:38;6.63;;;1.20;;
36547;SDS011;22551;52.206;4.856;2023-05-17T12:13:44;5.10;;;1.33;;
36547;SDS011;22551;52.206;4.856;2023-05-17T12:18:51;7.13;;;1.63;;
36547;SDS011;22551;52.206;4.856;2023-05-17T12:23:54;8.95;;;1.20;;
36547;SDS011;22551;52.206;4.856;2023-05-17T12:28:57;7.28;;;1.17;;
36547;SDS011;22551;52.206;4.856;2023-05-17T12:34:03;7.22;;;1.30;;
36547;SDS011;22551;52.206;4.856;2023-05-17T12:39:13;7.75;;;1.70;;
36547;SDS011;22551;52.206;4.856;2023-05-17T12:44:35;10.23;;;1.30;;
36547;SDS011;22551;52.206;4.856;2023-05-17T12:49:50;3.65;;;1.17;;
36547;SDS011;22551;52.206;4.856;2023-05-17T12:54:58;10.38;;;1.88;;
36547;SDS011;22551;52.206;4.856;2023-05-17T13:00:04;4.18;;;1.23;;
36547;SDS011;22551;52.206;4.856;2023-05-17T13:05:12;6.32;;;1.67;;
36547;SDS011;22551;52.206;4.856;2023-05-17T13:10:22;8.40;;;1.17;;
36547;SDS011;22551;52.206;4.856;2023-05-17T13:15:29;5.78;;;1.30;;
36547;SDS011;22551;52.206;4.856;2023-05-17T13:20:33;7.18;;;1.42;;
36547;SDS011;22551;52.206;4.856;2023-05-17T13:25:36;8.25;;;1.23;;
36547;SDS011;22551;52.206;4.856;2023-05-17T13:30:38;3.78;;;1.20;;
36547;SDS011;22551;52.206;4.856;2023-05-17T13:35:44;5.07;;;1.17;;
36547;SDS011;22551;52.206;4.856;2023-05-17T13:40:48;8.18;;;1.20;;
36547;SDS011;22551;52.206;4.856;2023-05-17T13:45:51;4.87;;;1.37;;
36547;SDS011;22551;52.206;4.856;2023-05-17T13:50:57;8.32;;;1.52;;
36547;SDS011;22551;52.206;4.856;2023-05-17T13:56:02;9.63;;;1.00;;
36547;SDS011;22551;52.206;4.856;2023-05-17T14:01:04;9.38;;;1.20;;
36547;SDS011;22551;52.206;4.856;2023-05-17T14:06:07;9.40;;;1.98;;
36547;SDS011;22551;52.206;4.856;2023-05-17T14:11:10;5.50;;;0.90;;
36547;SDS011;22551;52.206;4.856;2023-05-17T14:16:13;15.70;;;1.50;;
36547;SDS011;22551;52.206;4.856;2023-05-17T14:21:15;8.95;;;1.30;;
36547;SDS011;22551;52.206;4.856;2023-05-17T14:26:19;10.13;;;1.67;;
36547;SDS011;22551;52.206;4.856;2023-05-17T14:31:21;10.33;;;2.13;;
36547;SDS011;22551;52.206;4.856;2023-05-17T14:36:23;10.07;;;1.15;;
36547;SDS011;22551;52.206;4.856;2023-05-17T14:41:27;9.27;;;1.30;;
36547;SDS011;22551;52.206;4.856;2023-05-17T14:46:29;10.73;;;1.58;;
36547;SDS011;22551;52.206;4.856;2023-05-17T14:51:33;5.40;;;1.17;;
36547;SDS011;22551;52.206;4.856;2023-05-17T14:56:37;7.15;;;1.30;;
36547;SDS011;22551;52.206;4.856;2023-05-17T15:01:39;15.07;;;1.75;;
36547;SDS011;22551;52.206;4.856;2023-05-17T15:06:41;6.10;;;1.23;;
36547;SDS011;22551;52.206;4.856;2023-05-17T15:11:45;5.88;;;1.25;;
36547;SDS011;22551;52.206;4.856;2023-05-17T15:16:48;7.22;;;1.23;;
36547;SDS011;22551;52.206;4.856;2023-05-17T15:21:52;9.40;;;1.20;;
36547;SDS011;22551;52.206;4.856;2023-05-17T15:26:56;5.65;;;1.30;;
36547;SDS011;22551;52.206;4.856;2023-05-17T15:31:58;6.47;;;1.17;;
36547;SDS011;22551;52.206;4.856;2023-05-17T15:37:00;5.85;;;1.25;;
36547;SDS011;22551;52.206;4.856;2023-05-17T15:42:04;3.88;;;1.00;;
36547;SDS011;22551;52.206;4.856;2023-05-17T15:47:06;9.63;;;1.07;;
36547;SDS011;22551;52.206;4.856;2023-05-17T15:52:08;9.02;;;1.40;;
36547;SDS011;22551;52.206;4.856;2023-05-17T15:57:13;7.00;;;1.80;;
36547;SDS011;22551;52.206;4.856;2023-05-17T16:02:15;9.05;;;1.05;;
36547;SDS011;22551;52.206;4.856;2023-05-17T16:07:18;8.07;;;1.48;;
36547;SDS011;22551;52.206;4.856;2023-05-17T16:12:21;16.70;;;2.35;;
36547;SDS011;22551;52.206;4.856;2023-05-17T16:17:24;16.23;;;2.25;;
36547;SDS011;22551;52.206;4.856;2023-05-17T16:22:29;10.48;;;1.20;;
36547;SDS011;22551;52.206;4.856;2023-05-17T16:27:35;9.60;;;2.22;;
36547;SDS011;22551;52.206;4.856;2023-05-17T16:32:37;4.93;;;1.60;;
36547;SDS011;22551;52.206;4.856;2023-05-17T16:37:39;7.13;;;2.15;;
36547;SDS011;22551;52.206;4.856;2023-05-17T16:42:43;6.53;;;1.20;;
36547;SDS011;22551;52.206;4.856;2023-05-17T16:47:46;10.85;;;1.65;;
36547;SDS011;22551;52.206;4.856;2023-05-17T16:52:48;8.13;;;1.52;;
36547;SDS011;22551;52.206;4.856;2023-05-17T16:57:52;5.97;;;1.70;;
36547;SDS011;22551;52.206;4.856;2023-05-17T17:02:54;5.72;;;1.20;;
36547;SDS011;22551;52.206;4.856;2023-05-17T17:07:57;5.80;;;1.35;;
36547;SDS011;22551;52.206;4.856;2023-05-17T17:13:01;7.70;;;1.23;;
36547;SDS011;22551;52.206;4.856;2023-05-17T17:18:04;16.27;;;1.80;;
36547;SDS011;22551;52.206;4.856;2023-05-17T17:23:06;8.13;;;1.30;;
36547;SDS011;22551;52.206;4.856;2023-05-17T17:28:10;7.35;;;1.40;;
36547;SDS011;22551;52.206;4.856;2023-05-17T17:33:15;3.80;;;1.70;;
36547;SDS011;22551;52.206;4.856;2023-05-17T17:38:21;8.23;;;1.20;;
36547;SDS011;22551;52.206;4.856;2023-05-17T17:43:24;6.45;;;1.50;;
36547;SDS011;22551;52.206;4.856;2023-05-17T17:48:26;8.27;;;0.93;;
36547;SDS011;22551;52.206;4.856;2023-05-17T17:53:29;8.10;;;1.40;;
36547;SDS011;22551;52.206;4.856;2023-05-17T17:58:32;11.95;;;1.35;;
36547;SDS011;22551;52.206;4.856;2023-05-17T18:03:35;3.67;;;1.73;;
36547;SDS011;22551;52.206;4.856;2023-05-17T18:08:37;5.32;;;0.88;;
36547;SDS011;22551;52.206;4.856;2023-05-17T18:13:41;5.95;;;1.45;;
36547;SDS011;22551;52.206;4.856;2023-05-17T18:18:43;7.70;;;1.33;;
36547;SDS011;22551;52.206;4.856;2023-05-17T18:23:46;7.00;;;1.10;;
36547;SDS011;22551;52.206;4.856;2023-05-17T18:28:49;6.20;;;1.02;;
36547;SDS011;22551;52.206;4.856;2023-05-17T18:33:51;6.90;;;1.45;;
36547;SDS011;22551;52.206;4.856;2023-05-17T18:38:54;5.90;;;1.17;;
36547;SDS011;22551;52.206;4.856;2023-05-17T18:43:59;6.72;;;1.27;;
36547;SDS011;22551;52.206;4.856;2023-05-17T18:49:01;5.80;;;1.23;;
36547;SDS011;22551;52.206;4.856;2023-05-17T18:54:04;7.28;;;1.75;;
36547;SDS011;22551;52.206;4.856;2023-05-17T18:59:08;6.43;;;1.33;;
36547;SDS011;22551;52.206;4.856;2023-05-17T19:04:10;8.98;;;1.52;;
36547;SDS011;22551;52.206;4.856;2023-05-17T19:09:14;3.95;;;0.85;;
36547;SDS011;22551;52.206;4.856;2023-05-17T19:14:18;6.13;;;1.77;;
36547;SDS011;22551;52.206;4.856;2023-05-17T19:19:20;3.35;;;0.88;;
36547;SDS011;22551;52.206;4.856;2023-05-17T19:24:22;8.52;;;1.10;;
36547;SDS011;22551;52.206;4.856;2023-05-17T19:29:26;2.33;;;1.05;;
36547;SDS011;22551;52.206;4.856;2023-05-17T19:34:31;1.55;;;0.60;;
36547;SDS011;22551;52.206;4.856;2023-05-17T19:39:33;5.72;;;0.98;;
36547;SDS011;22551;52.206;4.856;2023-05-17T19:44:38;7.78;;;1.30;;
36547;SDS011;22551;52.206;4.856;2023-05-17T19:49:40;2.50;;;1.02;;
36547;SDS011;22551;52.206;4.856;2023-05-17T19:54:43;5.07;;;1.40;;
36547;SDS011;22551;52.206;4.856;2023-05-17T19:59:46;8.10;;;1.30;;
36547;SDS011;22551;52.206;4.856;2023-05-17T20:04:49;2.85;;;1.02;;
36547;SDS011;22551;52.206;4.856;2023-05-17T20:09:51;5.53;;;0.93;;
36547;SDS011;22551;52.206;4.856;2023-05-17T20:14:55;6.93;;;1.45;;
36547;SDS011;22551;52.206;4.856;2023-05-17T20:19:58;1.25;;;0.82;;
36547;SDS011;22551;52.206;4.856;2023-05-17T20:25:00;4.43;;;1.15;;
36547;SDS011;22551;52.206;4.856;2023-05-17T20:30:04;4.22;;;0.90;;
36547;SDS011;22551;52.206;4.856;2023-05-17T20:35:08;3.63;;;1.13;;
36547;SDS011;22551;52.206;4.856;2023-05-17T20:40:11;5.15;;;1.90;;
36547;SDS011;22551;52.206;4.856;2023-05-17T20:45:15;4.68;;;1.30;;
36547;SDS011;22551;52.206;4.856;2023-05-17T20:50:17;5.95;;;1.38;;
36547;SDS011;22551;52.206;4.856;2023-05-17T20:55:20;8.48;;;1.45;;
36547;SDS011;22551;52.206;4.856;2023-05-17T21:00:24;4.90;;;1.25;;
36547;SDS011;22551;52.206;4.856;2023-05-17T21:05:26;7.22;;;1.35;;
36547;SDS011;22551;52.206;4.856;2023-05-17T21:10:34;5.95;;;1.45;;
36547;SDS011;22551;52.206;4.856;2023-05-17T21:15:40;5.00;;;1.27;;
36547;SDS011;22551;52.206;4.856;2023-05-17T21:20:43;4.95;;;1.30;;
36547;SDS011;22551;52.206;4.856;2023-05-17T21:25:46;7.60;;;1.60;;
36547;SDS011;22551;52.206;4.856;2023-05-17T21:30:50;7.25;;;1.08;;
36547;SDS011;22551;52.206;4.856;2023-05-17T21:35:52;3.83;;;1.42;;
36547;SDS011;22551;52.206;4.856;2023-05-17T21:40:55;2.72;;;0.93;;
36547;SDS011;22551;52.206;4.856;2023-05-17T21:46:04;5.53;;;1.17;;
36547;SDS011;22551;52.206;4.856;2023-05-17T21:51:06;5.80;;;1.40;;
36547;SDS011;22551;52.206;4.856;2023-05-17T21:56:09;4.28;;;1.30;;
36547;SDS011;22551;52.206;4.856;2023-05-17T22:01:13;5.82;;;1.17;;
36547;SDS011;22551;52.206;4.856;2023-05-17T22:06:18;4.47;;;1.00;;
36547;SDS011;22551;52.206;4.856;2023-05-17T22:11:24;5.50;;;1.25;;
36547;SDS011;22551;52.206;4.856;2023-05-17T22:16:29;4.50;;;1.05;;
36547;SDS011;22551;52.206;4.856;2023-05-17T22:21:31;1.52;;;0.93;;
36547;SDS011;22551;52.206;4.856;2023-05-17T22:26:37;5.13;;;1.20;;
36547;SDS011;22551;52.206;4.856;2023-05-17T22:31:42;8.05;;;1.40;;
36547;SDS011;22551;52.206;4.856;2023-05-17T22:36:46;3.00;;;1.65;;
36547;SDS011;22551;52.206;4.856;2023-05-17T22:41:48;3.17;;;1.05;;
36547;SDS011;22551;52.206;4.856;2023-05-17T22:46:53;6.05;;;1.45;;
36547;SDS011;22551;52.206;4.856;2023-05-17T22:52:01;5.28;;;1.23;;
36547;SDS011;22551;52.206;4.856;2023-05-17T22:57:04;2.42;;;1.23;;
36547;SDS011;22551;52.206;4.856;2023-05-17T23:02:11;2.35;;;1.40;;
36547;SDS011;22551;52.206;4.856;2023-05-17T23:07:13;4.78;;;1.42;;
36547;SDS011;22551;52.206;4.856;2023-05-17T23:12:26;3.95;;;1.52;;
36547;SDS011;22551;52.206;4.856;2023-05-17T23:17:32;3.10;;;1.60;;
36547;SDS011;22551;52.206;4.856;2023-05-17T23:22:35;2.22;;;1.02;;
36547;SDS011;22551;52.206;4.856;2023-05-17T23:27:38;8.30;;;1.17;;
36547;SDS011;22551;52.206;4.856;2023-05-17T23:32:44;3.17;;;0.93;;
36547;SDS011;22551;52.206;4.856;2023-05-17T23:37:49;7.43;;;1.45;;
36547;SDS011;22551;52.206;4.856;2023-05-17T23:42:51;7.50;;;1.40;;
36547;SDS011;22551;52.206;4.856;2023-05-17T23:48:00;16.38;;;1.88;;
36547;SDS011;22551;52.206;4.856;2023-05-17T23:53:03;3.15;;;1.38;;
36547;SDS011;22551;52.206;4.856;2023-05-17T23:58:05;6.53;;;1.38;;
